Aviation Digital Data Service (ADDS)

Output produced by METARs form (2315 UTC 18 October 2019)
found at http://www.aviationweather.gov/metar/data/
 
METAR text: FKKD 182300Z 12003KT 9999 BKN013 FEW016CB 25/25 Q1012 NOSIG
Conditions at: FKKD (DOUALA (CIV/MIL), CM) observed 2300 UTC 18 October 2019
Temperature: 25.0°C (77°F)
Dewpoint: 25.0°C (77°F) [RH = 100%]
Pressure (altimeter): 29.88 inches Hg (1012.0 mb)
Winds: from the ESE (120 degrees) at 3 MPH (3 knots; 1.5 m/s)
Visibility: 6 or more miles (10+ km)
Ceiling: 1300 feet AGL
Clouds: broken clouds at 1300 feet AGL
few clouds at 1600 feet AGL
Weather: no significant weather observed at this time

METAR text: FKKD 182200Z 11003KT 9999 BKN013 FEW016CB 25/25 Q1012 NOSIG
Conditions at: FKKD (DOUALA (CIV/MIL), CM) observed 2200 UTC 18 October 2019
Temperature: 25.0°C (77°F)
Dewpoint: 25.0°C (77°F) [RH = 100%]
Pressure (altimeter): 29.88 inches Hg (1012.0 mb)
Winds: from the ESE (110 degrees) at 3 MPH (3 knots; 1.5 m/s)
Visibility: 6 or more miles (10+ km)
Ceiling: 1300 feet AGL
Clouds: broken clouds at 1300 feet AGL
few clouds at 1600 feet AGL
Weather: no significant weather observed at this time

METAR text: FKKD 182100Z 11002KT 9999 SCT014 FEW016CB 25/25 Q1012 NOSIG
Conditions at: FKKD (DOUALA (CIV/MIL), CM) observed 2100 UTC 18 October 2019
Temperature: 25.0°C (77°F)
Dewpoint: 25.0°C (77°F) [RH = 100%]
Pressure (altimeter): 29.88 inches Hg (1012.0 mb)
Winds: from the ESE (110 degrees) at 2 MPH (2 knots; 1.0 m/s)
Visibility: 6 or more miles (10+ km)
Ceiling: at least 12,000 feet AGL
Clouds: scattered clouds at 1400 feet AGL
few clouds at 1600 feet AGL
Weather: no significant weather observed at this time

METAR text: FKKD 182000Z 00000KT 9999 SCT014 FEW016CB 25/25 Q1012 NOSIG
Conditions at: FKKD (DOUALA (CIV/MIL), CM) observed 2000 UTC 18 October 2019
Temperature: 25.0°C (77°F)
Dewpoint: 25.0°C (77°F) [RH = 100%]
Pressure (altimeter): 29.88 inches Hg (1012.0 mb)
Winds: calm
Visibility: 6 or more miles (10+ km)
Ceiling: at least 12,000 feet AGL
Clouds: scattered clouds at 1400 feet AGL
few clouds at 1600 feet AGL
Weather: no significant weather observed at this time

METAR text: FKKD 181900Z 11001KT 9999 SCT014 FEW016CB 24/24 Q1011 NOSIG
Conditions at: FKKD (DOUALA (CIV/MIL), CM) observed 1900 UTC 18 October 2019
Temperature: 24.0°C (75°F)
Dewpoint: 24.0°C (75°F) [RH = 100%]
Pressure (altimeter): 29.85 inches Hg (1011.0 mb)
Winds: from the ESE (110 degrees) at 1 MPH (1 knots; 0.5 m/s)
Visibility: 6 or more miles (10+ km)
Ceiling: at least 12,000 feet AGL
Clouds: scattered clouds at 1400 feet AGL
few clouds at 1600 feet AGL
Weather: no significant weather observed at this time

METAR text: FKKD 181800Z 00000KT 9999 SCT014 FEW016CB 25/25 Q1010 NOSIG
Conditions at: FKKD (DOUALA (CIV/MIL), CM) observed 1800 UTC 18 October 2019
Temperature: 25.0°C (77°F)
Dewpoint: 25.0°C (77°F) [RH = 100%]
Pressure (altimeter): 29.82 inches Hg (1010.0 mb)
Winds: calm
Visibility: 6 or more miles (10+ km)
Ceiling: at least 12,000 feet AGL
Clouds: scattered clouds at 1400 feet AGL
few clouds at 1600 feet AGL
Weather: no significant weather observed at this time

METAR text: FKKD 181700Z VRB03KT 9999 SCT014 FEW016CB 27/25 Q1009 TEMPO TS
Conditions at: FKKD (DOUALA (CIV/MIL), CM) observed 1700 UTC 18 October 2019
Temperature: 27.0°C (81°F)
Dewpoint: 25.0°C (77°F) [RH = 89%]
Pressure (altimeter): 29.79 inches Hg (1009.0 mb)
Winds: variable direction winds at 3 MPH (3 knots; 1.5 m/s)
Visibility: 6 or more miles (10+ km)
Ceiling: at least 12,000 feet AGL
Clouds: scattered clouds at 1400 feet AGL
few clouds at 1600 feet AGL
Weather: no significant weather observed at this time

METAR text: FKKD 181600Z VRB02KT 9999 SCT014 FEW016CB 30/24 Q1009 NOSIG
Conditions at: FKKD (DOUALA (CIV/MIL), CM) observed 1600 UTC 18 October 2019
Temperature: 30.0°C (86°F)
Dewpoint: 24.0°C (75°F) [RH = 70%]
Pressure (altimeter): 29.79 inches Hg (1009.0 mb)
Winds: variable direction winds at 2 MPH (2 knots; 1.0 m/s)
Visibility: 6 or more miles (10+ km)
Ceiling: at least 12,000 feet AGL
Clouds: scattered clouds at 1400 feet AGL
few clouds at 1600 feet AGL
Weather: no significant weather observed at this time

METAR text: FKKD 181500Z VRB04KT 9999 BKN014 FEW016CB 30/24 Q1008 BECMG SCT014 FEW016CB
Conditions at: FKKD (DOUALA (CIV/MIL), CM) observed 1500 UTC 18 October 2019
Temperature: 30.0°C (86°F)
Dewpoint: 24.0°C (75°F) [RH = 70%]
Pressure (altimeter): 29.76 inches Hg (1008.0 mb)
Winds: variable direction winds at 5 MPH (4 knots; 2.1 m/s)
Visibility: 6 or more miles (10+ km)
Ceiling: 1400 feet AGL
Clouds: broken clouds at 1400 feet AGL
few clouds at 1600 feet AGL
Weather: no significant weather observed at this time

METAR text: FKKD 181400Z VRB04KT 9999 BKN014 FEW016CB 30/25 Q1009 NOSIG
Conditions at: FKKD (DOUALA (CIV/MIL), CM) observed 1400 UTC 18 October 2019
Temperature: 30.0°C (86°F)
Dewpoint: 25.0°C (77°F) [RH = 75%]
Pressure (altimeter): 29.79 inches Hg (1009.0 mb)
Winds: variable direction winds at 5 MPH (4 knots; 2.1 m/s)
Visibility: 6 or more miles (10+ km)
Ceiling: 1400 feet AGL
Clouds: broken clouds at 1400 feet AGL
few clouds at 1600 feet AGL
Weather: no significant weather observed at this time

METAR text: FKKD 181300Z 19004KT 110V270 9999 BKN014 FEW016CB 29/25 Q1010 NOSIG
Conditions at: FKKD (DOUALA (CIV/MIL), CM) observed 1300 UTC 18 October 2019
Temperature: 29.0°C (84°F)
Dewpoint: 25.0°C (77°F) [RH = 79%]
Pressure (altimeter): 29.82 inches Hg (1010.0 mb)
Winds: from the S (190 degrees) at 5 MPH (4 knots; 2.1 m/s)
Visibility: 6 or more miles (10+ km)
Ceiling: 1400 feet AGL
Clouds: broken clouds at 1400 feet AGL
few clouds at 1600 feet AGL
Weather: no significant weather observed at this time

METAR text: FKKD 181200Z 15004KT 070V200 9999 BKN014 FEW016CB 29/25 Q1011 NOSIG
Conditions at: FKKD (DOUALA (CIV/MIL), CM) observed 1200 UTC 18 October 2019
Temperature: 29.0°C (84°F)
Dewpoint: 25.0°C (77°F) [RH = 79%]
Pressure (altimeter): 29.85 inches Hg (1011.0 mb)
Winds: from the SSE (150 degrees) at 5 MPH (4 knots; 2.1 m/s)
Visibility: 6 or more miles (10+ km)
Ceiling: 1400 feet AGL
Clouds: broken clouds at 1400 feet AGL
few clouds at 1600 feet AGL
Weather: no significant weather observed at this time

METAR text: FKKD 181000Z 17004KT 120V230 4500 -TSRADZ SCT006 BKN012 FEW015CB 25/25 Q1013 BECMG 6000
Conditions at: FKKD (DOUALA (CIV/MIL), CM) observed 1000 UTC 18 October 2019
Temperature: 25.0°C (77°F)
Dewpoint: 25.0°C (77°F) [RH = 100%]
Pressure (altimeter): 29.91 inches Hg (1013.0 mb)
Winds: from the S (170 degrees) at 5 MPH (4 knots; 2.1 m/s)
Visibility: 2.80 miles (4.51 km)
Ceiling: 1200 feet AGL
Clouds: scattered clouds at 600 feet AGL
broken clouds at 1200 feet AGL
few clouds at 1500 feet AGL
Weather: -TSRA -TSDZ  (light rain associated with thunderstorm(s), unknown weather)

METAR text: FKKD 180900Z 13007KT 090V160 9999 BKN014 FEW017CB 27/25 Q1013 TEMPO 4000 TSRA
Conditions at: FKKD (DOUALA (CIV/MIL), CM) observed 0900 UTC 18 October 2019
Temperature: 27.0°C (81°F)
Dewpoint: 25.0°C (77°F) [RH = 89%]
Pressure (altimeter): 29.91 inches Hg (1013.0 mb)
Winds: from the SE (130 degrees) at 8 MPH (7 knots; 3.6 m/s)
Visibility: 6 or more miles (10+ km)
Ceiling: 1400 feet AGL
Clouds: broken clouds at 1400 feet AGL
few clouds at 1700 feet AGL
Weather: no significant weather observed at this time

METAR text: FKKD 180800Z 14004KT 110V180 7000 FEW006 BKN014 FEW017CB 27/25 Q1013 RETS NOSIG
Conditions at: FKKD (DOUALA (CIV/MIL), CM) observed 0800 UTC 18 October 2019
Temperature: 27.0°C (81°F)
Dewpoint: 25.0°C (77°F) [RH = 89%]
Pressure (altimeter): 29.91 inches Hg (1013.0 mb)
Winds: from the SE (140 degrees) at 5 MPH (4 knots; 2.1 m/s)
Visibility: 4 miles ( 7 km)
Ceiling: 1400 feet AGL
Clouds: few clouds at 600 feet AGL
broken clouds at 1400 feet AGL
few clouds at 1700 feet AGL
Weather: no significant weather observed at this time

METAR text: FKKD 180700Z 10004KT 2700 TS BR SCT004 BKN014 FEW017CB 25/25 Q1013 BECMG 6000 NSW
Conditions at: FKKD (DOUALA (CIV/MIL), CM) observed 0700 UTC 18 October 2019
Temperature: 25.0°C (77°F)
Dewpoint: 25.0°C (77°F) [RH = 100%]
Pressure (altimeter): 29.91 inches Hg (1013.0 mb)
Winds: from the E (100 degrees) at 5 MPH (4 knots; 2.1 m/s)
Visibility: 1.68 miles (2.70 km)
Ceiling: 1400 feet AGL
Clouds: scattered clouds at 400 feet AGL
broken clouds at 1400 feet AGL
few clouds at 1700 feet AGL
Weather: TS BR  (thunderstorm, mist)

METAR text: FKKD 180600Z VRB02KT 2000 TS BR FEW006 BKN016 SCT020CB 25/25 Q1012 TEMPO 1400 BR
Conditions at: FKKD (DOUALA (CIV/MIL), CM) observed 0600 UTC 18 October 2019
Temperature: 25.0°C (77°F)
Dewpoint: 25.0°C (77°F) [RH = 100%]
Pressure (altimeter): 29.88 inches Hg (1012.0 mb)
Winds: variable direction winds at 2 MPH (2 knots; 1.0 m/s)
Visibility: 1.24 miles (2.00 km)
Ceiling: 1600 feet AGL
Clouds: few clouds at 600 feet AGL
broken clouds at 1600 feet AGL
scattered clouds at 2000 feet AGL
Weather: TS BR  (thunderstorm, mist)

METAR text: FKKD 180500Z 13002KT 6000 TS SCT006 BKN013 SCT016CB 24/24 Q1011 TEMPO 3000 BR
Conditions at: FKKD (DOUALA (CIV/MIL), CM) observed 0500 UTC 18 October 2019
Temperature: 24.0°C (75°F)
Dewpoint: 24.0°C (75°F) [RH = 100%]
Pressure (altimeter): 29.85 inches Hg (1011.0 mb)
Winds: from the SE (130 degrees) at 2 MPH (2 knots; 1.0 m/s)
Visibility: 4 miles ( 6 km)
Ceiling: 1300 feet AGL
Clouds: scattered clouds at 600 feet AGL
broken clouds at 1300 feet AGL
scattered clouds at 1600 feet AGL
Weather: TS  (thunderstorm)

METAR text: FKKD 180400Z VRB01KT 8000 TS SCT006 BKN013 SCT016CB 25/25 Q1011 NOSIG
Conditions at: FKKD (DOUALA (CIV/MIL), CM) observed 0400 UTC 18 October 2019
Temperature: 25.0°C (77°F)
Dewpoint: 25.0°C (77°F) [RH = 100%]
Pressure (altimeter): 29.85 inches Hg (1011.0 mb)
Winds: variable direction winds at 1 MPH (1 knots; 0.5 m/s)
Visibility: 5 miles ( 8 km)
Ceiling: 1300 feet AGL
Clouds: scattered clouds at 600 feet AGL
broken clouds at 1300 feet AGL
scattered clouds at 1600 feet AGL
Weather: TS  (thunderstorm)

METAR text: FKKD 180300Z 00000KT 8000 SCT006 BKN013 FEW016CB 25/25 Q1010 NOSIG
Conditions at: FKKD (DOUALA (CIV/MIL), CM) observed 0300 UTC 18 October 2019
Temperature: 25.0°C (77°F)
Dewpoint: 25.0°C (77°F) [RH = 100%]
Pressure (altimeter): 29.82 inches Hg (1010.0 mb)
Winds: calm
Visibility: 5 miles ( 8 km)
Ceiling: 1300 feet AGL
Clouds: scattered clouds at 600 feet AGL
broken clouds at 1300 feet AGL
few clouds at 1600 feet AGL
Weather: no significant weather observed at this time

METAR text: FKKD 180200Z VRB01KT 9999 -DZ SCT006 BKN013 FEW015CB 25/25 Q1011 NOSIG
Conditions at: FKKD (DOUALA (CIV/MIL), CM) observed 0200 UTC 18 October 2019
Temperature: 25.0°C (77°F)
Dewpoint: 25.0°C (77°F) [RH = 100%]
Pressure (altimeter): 29.85 inches Hg (1011.0 mb)
Winds: variable direction winds at 1 MPH (1 knots; 0.5 m/s)
Visibility: 6 or more miles (10+ km)
Ceiling: 1300 feet AGL
Clouds: scattered clouds at 600 feet AGL
broken clouds at 1300 feet AGL
few clouds at 1500 feet AGL
Weather: -DZ  (light drizzle)

METAR text: FKKD 180100Z 00000KT 9999 SCT014 FEW016CB 25/25 Q1011 NOSIG
Conditions at: FKKD (DOUALA (CIV/MIL), CM) observed 0100 UTC 18 October 2019
Temperature: 25.0°C (77°F)
Dewpoint: 25.0°C (77°F) [RH = 100%]
Pressure (altimeter): 29.85 inches Hg (1011.0 mb)
Winds: calm
Visibility: 6 or more miles (10+ km)
Ceiling: at least 12,000 feet AGL
Clouds: scattered clouds at 1400 feet AGL
few clouds at 1600 feet AGL
Weather: no significant weather observed at this time

METAR text: FKKD 180000Z 11002KT 9999 SCT014 FEW016CB 25/25 Q1012 NOSIG
Conditions at: FKKD (DOUALA (CIV/MIL), CM) observed 0000 UTC 18 October 2019
Temperature: 25.0°C (77°F)
Dewpoint: 25.0°C (77°F) [RH = 100%]
Pressure (altimeter): 29.88 inches Hg (1012.0 mb)
Winds: from the ESE (110 degrees) at 2 MPH (2 knots; 1.0 m/s)
Visibility: 6 or more miles (10+ km)
Ceiling: at least 12,000 feet AGL
Clouds: scattered clouds at 1400 feet AGL
few clouds at 1600 feet AGL
Weather: no significant weather observed at this time

METAR text: FKKD 172300Z 12002KT 9999 SCT014 FEW016CB 25/25 Q1012 NOSIG
Conditions at: FKKD (DOUALA (CIV/MIL), CM) observed 2300 UTC 17 October 2019
Temperature: 25.0°C (77°F)
Dewpoint: 25.0°C (77°F) [RH = 100%]
Pressure (altimeter): 29.88 inches Hg (1012.0 mb)
Winds: from the ESE (120 degrees) at 2 MPH (2 knots; 1.0 m/s)
Visibility: 6 or more miles (10+ km)
Ceiling: at least 12,000 feet AGL
Clouds: scattered clouds at 1400 feet AGL
few clouds at 1600 feet AGL
Weather: no significant weather observed at this time

METAR text: FKKD 172200Z 15002KT 9999 SCT014 FEW016CB 25/25 Q1013 NOSIG
Conditions at: FKKD (DOUALA (CIV/MIL), CM) observed 2200 UTC 17 October 2019
Temperature: 25.0°C (77°F)
Dewpoint: 25.0°C (77°F) [RH = 100%]
Pressure (altimeter): 29.91 inches Hg (1013.0 mb)
Winds: from the SSE (150 degrees) at 2 MPH (2 knots; 1.0 m/s)
Visibility: 6 or more miles (10+ km)
Ceiling: at least 12,000 feet AGL
Clouds: scattered clouds at 1400 feet AGL
few clouds at 1600 feet AGL
Weather: no significant weather observed at this time

METAR text: FKKD 172100Z VRB02KT 9999 SCT014 FEW016CB 25/25 Q1013 NOSIG
Conditions at: FKKD (DOUALA (CIV/MIL), CM) observed 2100 UTC 17 October 2019
Temperature: 25.0°C (77°F)
Dewpoint: 25.0°C (77°F) [RH = 100%]
Pressure (altimeter): 29.91 inches Hg (1013.0 mb)
Winds: variable direction winds at 2 MPH (2 knots; 1.0 m/s)
Visibility: 6 or more miles (10+ km)
Ceiling: at least 12,000 feet AGL
Clouds: scattered clouds at 1400 feet AGL
few clouds at 1600 feet AGL
Weather: no significant weather observed at this time

METAR text: FKKD 172000Z VRB01KT 9999 SCT013 FEW016CB 25/25 Q1012 NOSIG
Conditions at: FKKD (DOUALA (CIV/MIL), CM) observed 2000 UTC 17 October 2019
Temperature: 25.0°C (77°F)
Dewpoint: 25.0°C (77°F) [RH = 100%]
Pressure (altimeter): 29.88 inches Hg (1012.0 mb)
Winds: variable direction winds at 1 MPH (1 knots; 0.5 m/s)
Visibility: 6 or more miles (10+ km)
Ceiling: at least 12,000 feet AGL
Clouds: scattered clouds at 1300 feet AGL
few clouds at 1600 feet AGL
Weather: no significant weather observed at this time

METAR text: FKKD 171900Z 00000KT 9999 SCT013 FEW016CB 25/25 Q1011 NOSIG
Conditions at: FKKD (DOUALA (CIV/MIL), CM) observed 1900 UTC 17 October 2019
Temperature: 25.0°C (77°F)
Dewpoint: 25.0°C (77°F) [RH = 100%]
Pressure (altimeter): 29.85 inches Hg (1011.0 mb)
Winds: calm
Visibility: 6 or more miles (10+ km)
Ceiling: at least 12,000 feet AGL
Clouds: scattered clouds at 1300 feet AGL
few clouds at 1600 feet AGL
Weather: no significant weather observed at this time

METAR text: FKKD 171800Z VRB02KT 9999 BKN013 FEW016CB 26/25 Q1010 TEMPO TS
Conditions at: FKKD (DOUALA (CIV/MIL), CM) observed 1800 UTC 17 October 2019
Temperature: 26.0°C (79°F)
Dewpoint: 25.0°C (77°F) [RH = 94%]
Pressure (altimeter): 29.82 inches Hg (1010.0 mb)
Winds: variable direction winds at 2 MPH (2 knots; 1.0 m/s)
Visibility: 6 or more miles (10+ km)
Ceiling: 1300 feet AGL
Clouds: broken clouds at 1300 feet AGL
few clouds at 1600 feet AGL
Weather: no significant weather observed at this time

METAR text: FKKD 171700Z VRB02KT 9999 BKN013 FEW016CB 27/25 Q1009 NOSIG
Conditions at: FKKD (DOUALA (CIV/MIL), CM) observed 1700 UTC 17 October 2019
Temperature: 27.0°C (81°F)
Dewpoint: 25.0°C (77°F) [RH = 89%]
Pressure (altimeter): 29.79 inches Hg (1009.0 mb)
Winds: variable direction winds at 2 MPH (2 knots; 1.0 m/s)
Visibility: 6 or more miles (10+ km)
Ceiling: 1300 feet AGL
Clouds: broken clouds at 1300 feet AGL
few clouds at 1600 feet AGL
Weather: no significant weather observed at this time

METAR text: FKKD 171600Z VRB02KT 9999 BKN013 FEW016CB 29/24 Q1009 TEMPO TS
Conditions at: FKKD (DOUALA (CIV/MIL), CM) observed 1600 UTC 17 October 2019
Temperature: 29.0°C (84°F)
Dewpoint: 24.0°C (75°F) [RH = 74%]
Pressure (altimeter): 29.79 inches Hg (1009.0 mb)
Winds: variable direction winds at 2 MPH (2 knots; 1.0 m/s)
Visibility: 6 or more miles (10+ km)
Ceiling: 1300 feet AGL
Clouds: broken clouds at 1300 feet AGL
few clouds at 1600 feet AGL
Weather: no significant weather observed at this time

METAR text: FKKD 171500Z 21004KT 120V270 9999 BKN013 FEW016CB 27/25 Q1009 TEMPO TS
Conditions at: FKKD (DOUALA (CIV/MIL), CM) observed 1500 UTC 17 October 2019
Temperature: 27.0°C (81°F)
Dewpoint: 25.0°C (77°F) [RH = 89%]
Pressure (altimeter): 29.79 inches Hg (1009.0 mb)
Winds: from the SSW (210 degrees) at 5 MPH (4 knots; 2.1 m/s)
Visibility: 6 or more miles (10+ km)
Ceiling: 1300 feet AGL
Clouds: broken clouds at 1300 feet AGL
few clouds at 1600 feet AGL
Weather: no significant weather observed at this time

METAR text: FKKD 171400Z VRB04KT 9999 BKN013 FEW016CB 27/24 Q1010 TEMPO TS
Conditions at: FKKD (DOUALA (CIV/MIL), CM) observed 1400 UTC 17 October 2019
Temperature: 27.0°C (81°F)
Dewpoint: 24.0°C (75°F) [RH = 84%]
Pressure (altimeter): 29.82 inches Hg (1010.0 mb)
Winds: variable direction winds at 5 MPH (4 knots; 2.1 m/s)
Visibility: 6 or more miles (10+ km)
Ceiling: 1300 feet AGL
Clouds: broken clouds at 1300 feet AGL
few clouds at 1600 feet AGL
Weather: no significant weather observed at this time

METAR text: FKKD 171300Z 18006KT 110V220 9999 BKN016 FEW020CB 29/24 Q1010 TEMPO TS
Conditions at: FKKD (DOUALA (CIV/MIL), CM) observed 1300 UTC 17 October 2019
Temperature: 29.0°C (84°F)
Dewpoint: 24.0°C (75°F) [RH = 74%]
Pressure (altimeter): 29.82 inches Hg (1010.0 mb)
Winds: from the S (180 degrees) at 7 MPH (6 knots; 3.1 m/s)
Visibility: 6 or more miles (10+ km)
Ceiling: 1600 feet AGL
Clouds: broken clouds at 1600 feet AGL
few clouds at 2000 feet AGL
Weather: no significant weather observed at this time

METAR text: FKKD 171200Z VRB06KT 9999 BKN016 FEW020CB 31/25 Q1011 NOSIG
Conditions at: FKKD (DOUALA (CIV/MIL), CM) observed 1200 UTC 17 October 2019
Temperature: 31.0°C (88°F)
Dewpoint: 25.0°C (77°F) [RH = 71%]
Pressure (altimeter): 29.85 inches Hg (1011.0 mb)
Winds: variable direction winds at 7 MPH (6 knots; 3.1 m/s)
Visibility: 6 or more miles (10+ km)
Ceiling: 1600 feet AGL
Clouds: broken clouds at 1600 feet AGL
few clouds at 2000 feet AGL
Weather: no significant weather observed at this time

Forecast for: FKKD (DOUALA (CIV/MIL), CM)
Text: TAF FKKD 182300Z 1900/2006 VRB03KT 9999 BKN013 FEW016CB
Forecast period: 0000 UTC 19 October 2019 to 0600 UTC 20 October 2019
Forecast type: FROM: standard forecast or significant change
Winds: variable direction winds at 3 MPH (3 knots; 1.5 m/s)
Visibility: 6 or more miles 10+ km)
Ceiling: 1300 feet AGL
Clouds: broken clouds at 1300 feet AGL
few clouds at 1600 feet AGL
Weather: no significant weather forecast for this period
Text: PROB30 1903/1906 -TSRADZ
Forecast period: 0300 to 0600 UTC 19 October 2019
Forecast type: PROBABLE: 30 percent likelihood of the following during this time
Visibility: missing
Ceiling: unknown
Clouds: missing
Weather: -TSRA -TSDZ  (light rain associated with thunderstorm(s), unknown weather)
Text: TEMPO 1912/1918 BKN016 FEW020CB
Forecast period: 1200 to 1800 UTC 19 October 2019
Forecast type: TEMPORARY: The following changes expected for less than half the time period
Visibility: missing
Ceiling: 1600 feet AGL
Clouds: broken clouds at 1600 feet AGL
few clouds at 2000 feet AGL
Weather: no significant weather forecast for this period
Text: PROB30 1912/1915 TS
Forecast period: 1200 to 1500 UTC 19 October 2019
Forecast type: PROBABLE: 30 percent likelihood of the following during this time
Visibility: missing
Ceiling: unknown
Clouds: missing
Weather: TS  (thunderstorm)